Djanet, Algeria
Current Conditions -  °F | °C
As of 1:00 AM on Saturday 22 Nov 2014 (Local Time) from DAAJ Reporting Station
Clear Clear  
Wind Chill: 55°   Ceiling: Unl
Heat Index: 55°   Visibility: 6mi
Dew Point: 34°   Wind: 0mph
Humidity: 44%   Direction: NA
Pressure: 30.24"   Gusts: NA
Location:  24.55°N, 9.48°E
Report Text: DAAJ 220000Z 00000KT CAVOK 13/01 Q1024
Loading
Personal Weather Stations






























Interactive Weather Map New forecast layout! Learn more

10-Day Weather Forecast

Advertisements
Track Severe Weather on mobile